sensor_id;sensor_type;location;lat;lon;timestamp;P1;durP1;ratioP1;P2;durP2;ratioP2
73938;SDS011;62291;47.554;8.504;2022-08-11T00:02:35;2.13;;;1.38;;
73938;SDS011;62291;47.554;8.504;2022-08-11T00:05:14;3.75;;;1.50;;
73938;SDS011;62291;47.554;8.504;2022-08-11T00:07:45;2.33;;;1.40;;
73938;SDS011;62291;47.554;8.504;2022-08-11T00:10:14;3.00;;;1.40;;
73938;SDS011;62291;47.554;8.504;2022-08-11T00:12:52;4.15;;;1.48;;
73938;SDS011;62291;47.554;8.504;2022-08-11T00:15:23;2.28;;;1.30;;
73938;SDS011;62291;47.554;8.504;2022-08-11T00:17:59;3.75;;;1.45;;
73938;SDS011;62291;47.554;8.504;2022-08-11T00:20:29;2.83;;;1.25;;
73938;SDS011;62291;47.554;8.504;2022-08-11T00:23:01;4.33;;;1.30;;
73938;SDS011;62291;47.554;8.504;2022-08-11T00:25:31;3.35;;;1.40;;
73938;SDS011;62291;47.554;8.504;2022-08-11T00:28:22;5.45;;;1.35;;
73938;SDS011;62291;47.554;8.504;2022-08-11T00:30:50;3.90;;;1.25;;
73938;SDS011;62291;47.554;8.504;2022-08-11T00:33:19;4.72;;;1.52;;
73938;SDS011;62291;47.554;8.504;2022-08-11T00:35:48;2.80;;;1.25;;
73938;SDS011;62291;47.554;8.504;2022-08-11T00:38:15;1.50;;;1.30;;
73938;SDS011;62291;47.554;8.504;2022-08-11T00:41:00;3.25;;;1.38;;
73938;SDS011;62291;47.554;8.504;2022-08-11T00:43:38;1.58;;;1.20;;
73938;SDS011;62291;47.554;8.504;2022-08-11T00:51:41;3.70;;;1.70;;
73938;SDS011;62291;47.554;8.504;2022-08-11T00:54:26;2.15;;;1.30;;
73938;SDS011;62291;47.554;8.504;2022-08-11T00:57:25;2.35;;;1.30;;
73938;SDS011;62291;47.554;8.504;2022-08-11T01:00:16;2.53;;;1.30;;
73938;SDS011;62291;47.554;8.504;2022-08-11T01:17:51;2.38;;;1.30;;
73938;SDS011;62291;47.554;8.504;2022-08-11T01:43:34;2.53;;;1.42;;
73938;SDS011;62291;47.554;8.504;2022-08-11T01:50:03;2.05;;;1.77;;
73938;SDS011;62291;47.554;8.504;2022-08-11T01:53:08;3.22;;;1.73;;
73938;SDS011;62291;47.554;8.504;2022-08-11T01:58:28;3.28;;;1.75;;
73938;SDS011;62291;47.554;8.504;2022-08-11T02:06:44;2.67;;;1.75;;
73938;SDS011;62291;47.554;8.504;2022-08-11T02:15:32;3.90;;;2.22;;
73938;SDS011;62291;47.554;8.504;2022-08-11T02:23:52;4.55;;;2.00;;
73938;SDS011;62291;47.554;8.504;2022-08-11T02:26:24;8.48;;;1.90;;
73938;SDS011;62291;47.554;8.504;2022-08-11T02:51:31;9.65;;;2.45;;
73938;SDS011;62291;47.554;8.504;2022-08-11T02:56:39;9.13;;;2.30;;
73938;SDS011;62291;47.554;8.504;2022-08-11T02:59:24;4.63;;;2.58;;
73938;SDS011;62291;47.554;8.504;2022-08-11T03:05:38;4.38;;;2.13;;
73938;SDS011;62291;47.554;8.504;2022-08-11T03:11:04;3.65;;;2.45;;
73938;SDS011;62291;47.554;8.504;2022-08-11T03:14:30;6.97;;;3.00;;
73938;SDS011;62291;47.554;8.504;2022-08-11T03:20:57;5.85;;;2.53;;
73938;SDS011;62291;47.554;8.504;2022-08-11T03:24:24;3.28;;;2.35;;
73938;SDS011;62291;47.554;8.504;2022-08-11T03:27:25;4.50;;;2.80;;
73938;SDS011;62291;47.554;8.504;2022-08-11T03:32:48;7.20;;;2.78;;
73938;SDS011;62291;47.554;8.504;2022-08-11T03:35:38;4.82;;;2.20;;
73938;SDS011;62291;47.554;8.504;2022-08-11T03:38:09;2.30;;;1.83;;
73938;SDS011;62291;47.554;8.504;2022-08-11T03:46:47;5.53;;;2.55;;
73938;SDS011;62291;47.554;8.504;2022-08-11T03:49:30;5.47;;;2.38;;
73938;SDS011;62291;47.554;8.504;2022-08-11T03:54:40;2.85;;;1.98;;
73938;SDS011;62291;47.554;8.504;2022-08-11T03:57:54;3.35;;;2.35;;
73938;SDS011;62291;47.554;8.504;2022-08-11T04:08:54;3.13;;;2.33;;
73938;SDS011;62291;47.554;8.504;2022-08-11T04:26:50;6.40;;;3.20;;
73938;SDS011;62291;47.554;8.504;2022-08-11T04:50:38;4.47;;;2.43;;
73938;SDS011;62291;47.554;8.504;2022-08-11T04:53:55;4.13;;;2.10;;
73938;SDS011;62291;47.554;8.504;2022-08-11T04:56:50;3.55;;;2.65;;
73938;SDS011;62291;47.554;8.504;2022-08-11T04:59:51;4.60;;;2.25;;
73938;SDS011;62291;47.554;8.504;2022-08-11T05:02:47;5.28;;;2.53;;
73938;SDS011;62291;47.554;8.504;2022-08-11T05:05:44;3.90;;;2.40;;
73938;SDS011;62291;47.554;8.504;2022-08-11T05:14:28;4.78;;;2.35;;
73938;SDS011;62291;47.554;8.504;2022-08-11T05:17:21;4.80;;;2.33;;
73938;SDS011;62291;47.554;8.504;2022-08-11T05:20:10;2.95;;;2.20;;
73938;SDS011;62291;47.554;8.504;2022-08-11T05:22:55;3.53;;;2.30;;
73938;SDS011;62291;47.554;8.504;2022-08-11T05:25:46;3.65;;;2.17;;
73938;SDS011;62291;47.554;8.504;2022-08-11T05:28:33;2.97;;;2.00;;
73938;SDS011;62291;47.554;8.504;2022-08-11T05:31:24;3.15;;;2.42;;
73938;SDS011;62291;47.554;8.504;2022-08-11T05:34:21;3.92;;;2.30;;
73938;SDS011;62291;47.554;8.504;2022-08-11T05:37:18;2.33;;;2.13;;
73938;SDS011;62291;47.554;8.504;2022-08-11T05:39:50;6.03;;;2.25;;
73938;SDS011;62291;47.554;8.504;2022-08-11T05:42:41;5.65;;;2.40;;
73938;SDS011;62291;47.554;8.504;2022-08-11T05:45:33;4.57;;;2.33;;
73938;SDS011;62291;47.554;8.504;2022-08-11T05:48:19;5.22;;;2.30;;
73938;SDS011;62291;47.554;8.504;2022-08-11T05:51:04;4.68;;;2.17;;
73938;SDS011;62291;47.554;8.504;2022-08-11T05:53:51;4.50;;;2.35;;
73938;SDS011;62291;47.554;8.504;2022-08-11T05:56:52;3.00;;;2.40;;
73938;SDS011;62291;47.554;8.504;2022-08-11T05:59:20;3.25;;;2.15;;
73938;SDS011;62291;47.554;8.504;2022-08-11T06:01:47;4.07;;;2.30;;
73938;SDS011;62291;47.554;8.504;2022-08-11T06:04:15;4.90;;;2.20;;
73938;SDS011;62291;47.554;8.504;2022-08-11T06:06:49;4.43;;;2.30;;
73938;SDS011;62291;47.554;8.504;2022-08-11T06:09:37;5.75;;;2.53;;
73938;SDS011;62291;47.554;8.504;2022-08-11T06:12:22;3.72;;;2.20;;
73938;SDS011;62291;47.554;8.504;2022-08-11T06:14:53;5.10;;;2.60;;
73938;SDS011;62291;47.554;8.504;2022-08-11T06:17:23;5.25;;;2.38;;
73938;SDS011;62291;47.554;8.504;2022-08-11T06:19:51;6.80;;;2.50;;
73938;SDS011;62291;47.554;8.504;2022-08-11T06:22:23;6.50;;;2.25;;
73938;SDS011;62291;47.554;8.504;2022-08-11T06:24:51;3.55;;;2.53;;
73938;SDS011;62291;47.554;8.504;2022-08-11T06:27:22;4.35;;;2.50;;
73938;SDS011;62291;47.554;8.504;2022-08-11T06:29:50;3.00;;;2.50;;
73938;SDS011;62291;47.554;8.504;2022-08-11T06:32:18;5.50;;;2.30;;
73938;SDS011;62291;47.554;8.504;2022-08-11T06:48:30;4.30;;;2.70;;
73938;SDS011;62291;47.554;8.504;2022-08-11T06:51:04;4.93;;;2.65;;
73938;SDS011;62291;47.554;8.504;2022-08-11T06:53:46;5.05;;;2.83;;
73938;SDS011;62291;47.554;8.504;2022-08-11T06:56:25;5.93;;;2.78;;
73938;SDS011;62291;47.554;8.504;2022-08-11T06:59:21;5.57;;;2.80;;
73938;SDS011;62291;47.554;8.504;2022-08-11T07:02:09;2.65;;;2.33;;
73938;SDS011;62291;47.554;8.504;2022-08-11T07:04:43;3.20;;;2.20;;
73938;SDS011;62291;47.554;8.504;2022-08-11T07:07:17;8.00;;;2.42;;
73938;SDS011;62291;47.554;8.504;2022-08-11T07:13:34;7.38;;;2.63;;
73938;SDS011;62291;47.554;8.504;2022-08-11T07:16:25;3.92;;;2.40;;
73938;SDS011;62291;47.554;8.504;2022-08-11T07:18:59;4.32;;;2.40;;
73938;SDS011;62291;47.554;8.504;2022-08-11T07:21:46;6.57;;;2.50;;
73938;SDS011;62291;47.554;8.504;2022-08-11T07:24:35;6.10;;;2.42;;
73938;SDS011;62291;47.554;8.504;2022-08-11T07:30:09;4.03;;;2.60;;
73938;SDS011;62291;47.554;8.504;2022-08-11T07:32:51;3.28;;;2.58;;
73938;SDS011;62291;47.554;8.504;2022-08-11T07:35:23;3.83;;;2.80;;
73938;SDS011;62291;47.554;8.504;2022-08-11T07:37:58;4.55;;;2.47;;
73938;SDS011;62291;47.554;8.504;2022-08-11T07:40:31;7.13;;;2.60;;
73938;SDS011;62291;47.554;8.504;2022-08-11T07:42:58;5.35;;;2.70;;
73938;SDS011;62291;47.554;8.504;2022-08-11T07:45:25;5.68;;;2.60;;
73938;SDS011;62291;47.554;8.504;2022-08-11T07:48:10;3.67;;;2.63;;
73938;SDS011;62291;47.554;8.504;2022-08-11T07:50:56;7.40;;;2.88;;
73938;SDS011;62291;47.554;8.504;2022-08-11T07:53:41;5.07;;;2.50;;
73938;SDS011;62291;47.554;8.504;2022-08-11T07:56:07;4.35;;;2.83;;
73938;SDS011;62291;47.554;8.504;2022-08-11T07:58:34;3.20;;;2.70;;
73938;SDS011;62291;47.554;8.504;2022-08-11T08:01:21;3.15;;;2.40;;
73938;SDS011;62291;47.554;8.504;2022-08-11T08:04:06;4.10;;;2.80;;
73938;SDS011;62291;47.554;8.504;2022-08-11T08:06:52;5.70;;;2.53;;
73938;SDS011;62291;47.554;8.504;2022-08-11T08:09:37;5.63;;;2.45;;
73938;SDS011;62291;47.554;8.504;2022-08-11T08:12:23;2.60;;;2.35;;
73938;SDS011;62291;47.554;8.504;2022-08-11T08:15:09;4.15;;;2.58;;
73938;SDS011;62291;47.554;8.504;2022-08-11T08:17:58;4.75;;;2.80;;
73938;SDS011;62291;47.554;8.504;2022-08-11T08:20:30;4.65;;;2.80;;
73938;SDS011;62291;47.554;8.504;2022-08-11T08:22:59;4.00;;;2.83;;
73938;SDS011;62291;47.554;8.504;2022-08-11T08:25:27;4.20;;;2.50;;
73938;SDS011;62291;47.554;8.504;2022-08-11T08:27:55;4.75;;;2.60;;
73938;SDS011;62291;47.554;8.504;2022-08-11T08:30:26;4.07;;;2.80;;
73938;SDS011;62291;47.554;8.504;2022-08-11T08:33:16;6.85;;;2.50;;
73938;SDS011;62291;47.554;8.504;2022-08-11T08:35:42;5.25;;;2.63;;
73938;SDS011;62291;47.554;8.504;2022-08-11T08:38:10;3.83;;;2.40;;
73938;SDS011;62291;47.554;8.504;2022-08-11T08:40:36;2.83;;;2.55;;
73938;SDS011;62291;47.554;8.504;2022-08-11T08:43:06;4.75;;;2.65;;
73938;SDS011;62291;47.554;8.504;2022-08-11T08:45:35;5.13;;;2.78;;
73938;SDS011;62291;47.554;8.504;2022-08-11T08:48:06;6.30;;;3.10;;
73938;SDS011;62291;47.554;8.504;2022-08-11T08:50:39;4.22;;;2.70;;
73938;SDS011;62291;47.554;8.504;2022-08-11T08:53:48;5.40;;;2.70;;
73938;SDS011;62291;47.554;8.504;2022-08-11T08:56:16;5.90;;;2.72;;
73938;SDS011;62291;47.554;8.504;2022-08-11T08:58:43;5.25;;;2.50;;
73938;SDS011;62291;47.554;8.504;2022-08-11T09:01:12;4.30;;;2.50;;
73938;SDS011;62291;47.554;8.504;2022-08-11T09:03:39;2.97;;;2.47;;
73938;SDS011;62291;47.554;8.504;2022-08-11T09:06:05;7.15;;;2.75;;
73938;SDS011;62291;47.554;8.504;2022-08-11T09:08:31;5.32;;;2.63;;
73938;SDS011;62291;47.554;8.504;2022-08-11T09:10:59;3.53;;;2.60;;
73938;SDS011;62291;47.554;8.504;2022-08-11T09:13:44;4.53;;;2.65;;
73938;SDS011;62291;47.554;8.504;2022-08-11T09:16:11;5.63;;;2.35;;
73938;SDS011;62291;47.554;8.504;2022-08-11T09:18:37;6.00;;;2.50;;
73938;SDS011;62291;47.554;8.504;2022-08-11T09:21:08;4.28;;;2.78;;
73938;SDS011;62291;47.554;8.504;2022-08-11T09:23:39;7.97;;;3.03;;
73938;SDS011;62291;47.554;8.504;2022-08-11T09:26:25;4.05;;;2.42;;
73938;SDS011;62291;47.554;8.504;2022-08-11T09:29:09;4.13;;;2.40;;
73938;SDS011;62291;47.554;8.504;2022-08-11T09:31:36;5.22;;;2.33;;
73938;SDS011;62291;47.554;8.504;2022-08-11T09:34:02;3.30;;;2.20;;
73938;SDS011;62291;47.554;8.504;2022-08-11T09:36:28;3.30;;;2.40;;
73938;SDS011;62291;47.554;8.504;2022-08-11T09:39:13;4.35;;;2.53;;
73938;SDS011;62291;47.554;8.504;2022-08-11T09:41:59;3.95;;;2.83;;
73938;SDS011;62291;47.554;8.504;2022-08-11T09:44:27;4.32;;;2.70;;
73938;SDS011;62291;47.554;8.504;2022-08-11T09:47:25;4.32;;;2.30;;
73938;SDS011;62291;47.554;8.504;2022-08-11T09:49:54;8.40;;;2.83;;
73938;SDS011;62291;47.554;8.504;2022-08-11T09:52:23;6.30;;;2.63;;
73938;SDS011;62291;47.554;8.504;2022-08-11T09:54:50;5.20;;;2.67;;
73938;SDS011;62291;47.554;8.504;2022-08-11T09:57:20;3.80;;;2.63;;
73938;SDS011;62291;47.554;8.504;2022-08-11T10:00:06;5.93;;;2.80;;
73938;SDS011;62291;47.554;8.504;2022-08-11T10:02:33;3.92;;;2.40;;
73938;SDS011;62291;47.554;8.504;2022-08-11T10:05:07;7.07;;;2.50;;
73938;SDS011;62291;47.554;8.504;2022-08-11T10:07:53;4.63;;;2.47;;
73938;SDS011;62291;47.554;8.504;2022-08-11T10:10:19;5.85;;;2.22;;
73938;SDS011;62291;47.554;8.504;2022-08-11T10:12:52;3.53;;;2.40;;
73938;SDS011;62291;47.554;8.504;2022-08-11T10:15:24;5.10;;;2.70;;
73938;SDS011;62291;47.554;8.504;2022-08-11T10:18:14;6.40;;;2.92;;
73938;SDS011;62291;47.554;8.504;2022-08-11T10:21:02;8.02;;;3.08;;
73938;SDS011;62291;47.554;8.504;2022-08-11T10:23:40;5.53;;;2.70;;
73938;SDS011;62291;47.554;8.504;2022-08-11T10:26:26;3.28;;;2.42;;
73938;SDS011;62291;47.554;8.504;2022-08-11T10:29:12;4.70;;;2.60;;
73938;SDS011;62291;47.554;8.504;2022-08-11T10:31:58;3.80;;;2.50;;
73938;SDS011;62291;47.554;8.504;2022-08-11T10:34:44;4.97;;;2.38;;
73938;SDS011;62291;47.554;8.504;2022-08-11T10:37:12;4.82;;;2.60;;
73938;SDS011;62291;47.554;8.504;2022-08-11T10:39:39;4.70;;;2.80;;
73938;SDS011;62291;47.554;8.504;2022-08-11T10:42:05;3.20;;;2.40;;
73938;SDS011;62291;47.554;8.504;2022-08-11T10:44:53;4.80;;;3.00;;
73938;SDS011;62291;47.554;8.504;2022-08-11T10:47:20;2.92;;;2.45;;
73938;SDS011;62291;47.554;8.504;2022-08-11T10:49:59;3.88;;;2.70;;
73938;SDS011;62291;47.554;8.504;2022-08-11T10:52:50;3.00;;;2.30;;
73938;SDS011;62291;47.554;8.504;2022-08-11T10:55:37;4.38;;;2.55;;
73938;SDS011;62291;47.554;8.504;2022-08-11T10:58:22;5.47;;;2.50;;
73938;SDS011;62291;47.554;8.504;2022-08-11T11:01:07;5.63;;;2.63;;
73938;SDS011;62291;47.554;8.504;2022-08-11T11:03:33;3.13;;;2.40;;
73938;SDS011;62291;47.554;8.504;2022-08-11T11:09:15;3.90;;;2.90;;
73938;SDS011;62291;47.554;8.504;2022-08-11T11:11:53;4.45;;;2.90;;
73938;SDS011;62291;47.554;8.504;2022-08-11T11:14:41;6.30;;;2.72;;
73938;SDS011;62291;47.554;8.504;2022-08-11T11:17:44;7.40;;;2.70;;
73938;SDS011;62291;47.554;8.504;2022-08-11T11:20:22;4.80;;;2.50;;
73938;SDS011;62291;47.554;8.504;2022-08-11T11:22:56;4.43;;;2.80;;
73938;SDS011;62291;47.554;8.504;2022-08-11T11:37:17;2.72;;;2.30;;
73938;SDS011;62291;47.554;8.504;2022-08-11T11:39:43;4.28;;;2.53;;
73938;SDS011;62291;47.554;8.504;2022-08-11T11:42:09;4.50;;;2.72;;
73938;SDS011;62291;47.554;8.504;2022-08-11T11:44:40;3.67;;;2.45;;
73938;SDS011;62291;47.554;8.504;2022-08-11T11:47:10;3.13;;;2.80;;
73938;SDS011;62291;47.554;8.504;2022-08-11T11:49:36;2.47;;;2.28;;
73938;SDS011;62291;47.554;8.504;2022-08-11T11:52:07;6.50;;;2.40;;
73938;SDS011;62291;47.554;8.504;2022-08-11T11:54:33;4.65;;;2.60;;
73938;SDS011;62291;47.554;8.504;2022-08-11T11:57:00;6.55;;;2.60;;
73938;SDS011;62291;47.554;8.504;2022-08-11T11:59:47;4.40;;;3.00;;
73938;SDS011;62291;47.554;8.504;2022-08-11T12:02:32;4.63;;;2.50;;
73938;SDS011;62291;47.554;8.504;2022-08-11T12:05:00;6.57;;;2.67;;
73938;SDS011;62291;47.554;8.504;2022-08-11T12:07:26;7.25;;;2.60;;
73938;SDS011;62291;47.554;8.504;2022-08-11T12:10:12;18.10;;;2.60;;
73938;SDS011;62291;47.554;8.504;2022-08-11T12:12:38;3.42;;;2.50;;
73938;SDS011;62291;47.554;8.504;2022-08-11T12:15:23;3.17;;;2.85;;
73938;SDS011;62291;47.554;8.504;2022-08-11T12:17:49;4.90;;;2.30;;
73938;SDS011;62291;47.554;8.504;2022-08-11T12:20:18;4.85;;;2.80;;
73938;SDS011;62291;47.554;8.504;2022-08-11T12:22:45;5.20;;;2.60;;
73938;SDS011;62291;47.554;8.504;2022-08-11T12:25:30;6.80;;;2.60;;
73938;SDS011;62291;47.554;8.504;2022-08-11T12:28:16;6.47;;;2.70;;
73938;SDS011;62291;47.554;8.504;2022-08-11T12:30:42;5.13;;;2.80;;
73938;SDS011;62291;47.554;8.504;2022-08-11T12:33:11;6.85;;;2.70;;
73938;SDS011;62291;47.554;8.504;2022-08-11T12:35:38;2.90;;;2.65;;
73938;SDS011;62291;47.554;8.504;2022-08-11T12:38:06;4.68;;;2.55;;
73938;SDS011;62291;47.554;8.504;2022-08-11T12:40:33;4.57;;;2.40;;
73938;SDS011;62291;47.554;8.504;2022-08-11T12:43:20;8.07;;;2.55;;
73938;SDS011;62291;47.554;8.504;2022-08-11T12:46:11;6.78;;;2.58;;
73938;SDS011;62291;47.554;8.504;2022-08-11T12:48:44;2.83;;;2.60;;
73938;SDS011;62291;47.554;8.504;2022-08-11T12:51:36;4.45;;;2.40;;
73938;SDS011;62291;47.554;8.504;2022-08-11T12:57:05;5.00;;;2.90;;
73938;SDS011;62291;47.554;8.504;2022-08-11T12:59:58;2.85;;;2.60;;
73938;SDS011;62291;47.554;8.504;2022-08-11T13:02:43;3.03;;;2.72;;
73938;SDS011;62291;47.554;8.504;2022-08-11T13:05:32;4.00;;;2.60;;
73938;SDS011;62291;47.554;8.504;2022-08-11T13:08:01;4.55;;;2.50;;
73938;SDS011;62291;47.554;8.504;2022-08-11T13:10:28;4.68;;;2.80;;
73938;SDS011;62291;47.554;8.504;2022-08-11T13:13:22;5.95;;;2.50;;
73938;SDS011;62291;47.554;8.504;2022-08-11T13:15:48;6.18;;;2.22;;
73938;SDS011;62291;47.554;8.504;2022-08-11T13:18:16;4.50;;;2.55;;
73938;SDS011;62291;47.554;8.504;2022-08-11T13:20:47;5.40;;;2.53;;
73938;SDS011;62291;47.554;8.504;2022-08-11T13:23:15;6.07;;;2.72;;
73938;SDS011;62291;47.554;8.504;2022-08-11T13:25:41;4.53;;;2.50;;
73938;SDS011;62291;47.554;8.504;2022-08-11T13:28:08;3.17;;;2.40;;
73938;SDS011;62291;47.554;8.504;2022-08-11T13:30:36;5.30;;;2.85;;
73938;SDS011;62291;47.554;8.504;2022-08-11T13:33:21;4.82;;;2.70;;
73938;SDS011;62291;47.554;8.504;2022-08-11T13:35:49;3.60;;;2.50;;
73938;SDS011;62291;47.554;8.504;2022-08-11T13:38:18;2.83;;;2.55;;
73938;SDS011;62291;47.554;8.504;2022-08-11T13:40:47;7.50;;;2.75;;
73938;SDS011;62291;47.554;8.504;2022-08-11T13:43:14;4.32;;;2.28;;
73938;SDS011;62291;47.554;8.504;2022-08-11T13:45:41;4.28;;;2.60;;
73938;SDS011;62291;47.554;8.504;2022-08-11T13:48:12;3.08;;;2.40;;
73938;SDS011;62291;47.554;8.504;2022-08-11T13:50:39;3.20;;;2.63;;
73938;SDS011;62291;47.554;8.504;2022-08-11T13:53:25;3.00;;;2.70;;
73938;SDS011;62291;47.554;8.504;2022-08-11T13:55:53;6.38;;;2.80;;
73938;SDS011;62291;47.554;8.504;2022-08-11T13:58:21;4.15;;;2.80;;
73938;SDS011;62291;47.554;8.504;2022-08-11T14:00:48;2.65;;;2.40;;
73938;SDS011;62291;47.554;8.504;2022-08-11T14:03:16;2.83;;;2.30;;
73938;SDS011;62291;47.554;8.504;2022-08-11T14:05:51;6.93;;;2.42;;
73938;SDS011;62291;47.554;8.504;2022-08-11T14:08:23;5.65;;;2.47;;
73938;SDS011;62291;47.554;8.504;2022-08-11T14:10:58;3.05;;;2.75;;
73938;SDS011;62291;47.554;8.504;2022-08-11T14:13:46;2.80;;;2.47;;
73938;SDS011;62291;47.554;8.504;2022-08-11T14:16:15;3.70;;;2.83;;
73938;SDS011;62291;47.554;8.504;2022-08-11T14:18:51;3.83;;;2.80;;
73938;SDS011;62291;47.554;8.504;2022-08-11T14:21:22;6.30;;;2.72;;
73938;SDS011;62291;47.554;8.504;2022-08-11T14:24:08;3.83;;;2.20;;
73938;SDS011;62291;47.554;8.504;2022-08-11T14:26:35;6.03;;;2.90;;
73938;SDS011;62291;47.554;8.504;2022-08-11T14:29:10;3.80;;;2.40;;
73938;SDS011;62291;47.554;8.504;2022-08-11T14:31:44;4.25;;;2.47;;
73938;SDS011;62291;47.554;8.504;2022-08-11T14:34:11;4.90;;;2.75;;
73938;SDS011;62291;47.554;8.504;2022-08-11T14:36:39;5.50;;;2.60;;
73938;SDS011;62291;47.554;8.504;2022-08-11T14:39:11;5.25;;;2.53;;
73938;SDS011;62291;47.554;8.504;2022-08-11T14:41:42;6.20;;;2.70;;
73938;SDS011;62291;47.554;8.504;2022-08-11T14:44:31;5.40;;;2.65;;
73938;SDS011;62291;47.554;8.504;2022-08-11T14:47:18;4.47;;;2.58;;
73938;SDS011;62291;47.554;8.504;2022-08-11T14:49:45;3.55;;;2.63;;
73938;SDS011;62291;47.554;8.504;2022-08-11T14:52:13;3.17;;;2.60;;
73938;SDS011;62291;47.554;8.504;2022-08-11T14:54:45;4.68;;;2.40;;
73938;SDS011;62291;47.554;8.504;2022-08-11T14:57:32;5.82;;;2.95;;
73938;SDS011;62291;47.554;8.504;2022-08-11T15:00:01;2.85;;;2.40;;
73938;SDS011;62291;47.554;8.504;2022-08-11T15:02:30;3.25;;;2.60;;
73938;SDS011;62291;47.554;8.504;2022-08-11T15:05:20;4.13;;;2.50;;
73938;SDS011;62291;47.554;8.504;2022-08-11T15:07:47;5.95;;;2.63;;
73938;SDS011;62291;47.554;8.504;2022-08-11T15:10:15;2.97;;;2.65;;
73938;SDS011;62291;47.554;8.504;2022-08-11T15:12:42;4.63;;;2.58;;
73938;SDS011;62291;47.554;8.504;2022-08-11T15:15:09;3.63;;;2.60;;
73938;SDS011;62291;47.554;8.504;2022-08-11T15:18:00;6.10;;;2.75;;
73938;SDS011;62291;47.554;8.504;2022-08-11T15:20:29;3.45;;;2.50;;
73938;SDS011;62291;47.554;8.504;2022-08-11T15:23:14;5.93;;;2.63;;
73938;SDS011;62291;47.554;8.504;2022-08-11T15:25:58;4.28;;;2.42;;
73938;SDS011;62291;47.554;8.504;2022-08-11T15:28:28;6.47;;;2.53;;
73938;SDS011;62291;47.554;8.504;2022-08-11T15:31:14;4.85;;;2.47;;
73938;SDS011;62291;47.554;8.504;2022-08-11T15:34:01;4.75;;;2.40;;
73938;SDS011;62291;47.554;8.504;2022-08-11T15:36:47;3.65;;;2.50;;
73938;SDS011;62291;47.554;8.504;2022-08-11T15:39:34;2.65;;;2.45;;
73938;SDS011;62291;47.554;8.504;2022-08-11T15:42:29;6.50;;;2.70;;
73938;SDS011;62291;47.554;8.504;2022-08-11T15:45:16;6.07;;;2.20;;
73938;SDS011;62291;47.554;8.504;2022-08-11T15:48:08;3.33;;;2.42;;
73938;SDS011;62291;47.554;8.504;2022-08-11T15:50:41;3.15;;;2.70;;
73938;SDS011;62291;47.554;8.504;2022-08-11T15:53:12;5.55;;;2.63;;
73938;SDS011;62291;47.554;8.504;2022-08-11T15:55:57;3.50;;;2.53;;
73938;SDS011;62291;47.554;8.504;2022-08-11T15:58:25;5.22;;;2.75;;
73938;SDS011;62291;47.554;8.504;2022-08-11T16:01:14;6.90;;;2.92;;
73938;SDS011;62291;47.554;8.504;2022-08-11T16:04:02;3.45;;;2.30;;
73938;SDS011;62291;47.554;8.504;2022-08-11T16:06:47;3.10;;;2.63;;
73938;SDS011;62291;47.554;8.504;2022-08-11T16:09:23;3.20;;;2.55;;
73938;SDS011;62291;47.554;8.504;2022-08-11T16:12:02;3.35;;;2.72;;
73938;SDS011;62291;47.554;8.504;2022-08-11T16:14:33;3.10;;;2.80;;
73938;SDS011;62291;47.554;8.504;2022-08-11T16:17:22;7.10;;;2.65;;
73938;SDS011;62291;47.554;8.504;2022-08-11T16:19:51;3.55;;;2.80;;
73938;SDS011;62291;47.554;8.504;2022-08-11T16:22:29;3.30;;;2.53;;
73938;SDS011;62291;47.554;8.504;2022-08-11T16:25:06;5.22;;;2.83;;
73938;SDS011;62291;47.554;8.504;2022-08-11T16:27:36;3.33;;;2.53;;
73938;SDS011;62291;47.554;8.504;2022-08-11T16:30:05;2.90;;;2.38;;
73938;SDS011;62291;47.554;8.504;2022-08-11T16:32:32;3.05;;;2.55;;
73938;SDS011;62291;47.554;8.504;2022-08-11T16:35:01;3.28;;;2.97;;
73938;SDS011;62291;47.554;8.504;2022-08-11T16:37:52;3.75;;;2.47;;
73938;SDS011;62291;47.554;8.504;2022-08-11T16:40:39;3.38;;;2.60;;
73938;SDS011;62291;47.554;8.504;2022-08-11T16:43:07;7.50;;;2.60;;
73938;SDS011;62291;47.554;8.504;2022-08-11T16:45:56;5.07;;;2.60;;
73938;SDS011;62291;47.554;8.504;2022-08-11T16:48:42;3.92;;;2.50;;
73938;SDS011;62291;47.554;8.504;2022-08-11T16:51:12;5.32;;;2.53;;
73938;SDS011;62291;47.554;8.504;2022-08-11T16:53:38;4.25;;;2.40;;
73938;SDS011;62291;47.554;8.504;2022-08-11T16:56:06;3.95;;;2.70;;
73938;SDS011;62291;47.554;8.504;2022-08-11T16:58:34;5.88;;;2.50;;
73938;SDS011;62291;47.554;8.504;2022-08-11T17:01:21;5.68;;;2.58;;
73938;SDS011;62291;47.554;8.504;2022-08-11T17:03:55;4.63;;;2.50;;
73938;SDS011;62291;47.554;8.504;2022-08-11T17:06:44;4.72;;;2.92;;
73938;SDS011;62291;47.554;8.504;2022-08-11T17:09:31;4.18;;;2.70;;
73938;SDS011;62291;47.554;8.504;2022-08-11T17:12:19;7.03;;;2.30;;
73938;SDS011;62291;47.554;8.504;2022-08-11T17:15:08;3.85;;;2.60;;
73938;SDS011;62291;47.554;8.504;2022-08-11T17:17:57;5.10;;;2.75;;
73938;SDS011;62291;47.554;8.504;2022-08-11T17:20:24;3.88;;;2.53;;
73938;SDS011;62291;47.554;8.504;2022-08-11T17:22:52;3.45;;;2.50;;
73938;SDS011;62291;47.554;8.504;2022-08-11T17:25:37;3.53;;;2.50;;
73938;SDS011;62291;47.554;8.504;2022-08-11T17:28:04;5.25;;;2.83;;
73938;SDS011;62291;47.554;8.504;2022-08-11T17:30:31;3.50;;;2.38;;
73938;SDS011;62291;47.554;8.504;2022-08-11T17:33:17;3.60;;;2.40;;
73938;SDS011;62291;47.554;8.504;2022-08-11T17:36:02;2.83;;;2.63;;
73938;SDS011;62291;47.554;8.504;2022-08-11T17:38:28;2.55;;;2.35;;
73938;SDS011;62291;47.554;8.504;2022-08-11T17:40:58;3.80;;;2.55;;
73938;SDS011;62291;47.554;8.504;2022-08-11T17:43:44;3.63;;;2.53;;
73938;SDS011;62291;47.554;8.504;2022-08-11T17:46:30;4.65;;;2.47;;
73938;SDS011;62291;47.554;8.504;2022-08-11T17:49:16;5.20;;;2.90;;
73938;SDS011;62291;47.554;8.504;2022-08-11T17:51:44;7.38;;;5.78;;
73938;SDS011;62291;47.554;8.504;2022-08-11T17:54:30;5.68;;;2.63;;
73938;SDS011;62291;47.554;8.504;2022-08-11T17:57:17;2.88;;;2.53;;
73938;SDS011;62291;47.554;8.504;2022-08-11T18:00:03;3.80;;;2.58;;
73938;SDS011;62291;47.554;8.504;2022-08-11T18:02:37;3.17;;;2.88;;
73938;SDS011;62291;47.554;8.504;2022-08-11T18:05:26;2.60;;;2.40;;
73938;SDS011;62291;47.554;8.504;2022-08-11T18:07:55;4.45;;;2.65;;
73938;SDS011;62291;47.554;8.504;2022-08-11T18:10:41;9.77;;;2.63;;
73938;SDS011;62291;47.554;8.504;2022-08-11T18:13:29;3.55;;;2.50;;
73938;SDS011;62291;47.554;8.504;2022-08-11T18:16:17;4.88;;;2.72;;
73938;SDS011;62291;47.554;8.504;2022-08-11T18:19:02;3.08;;;2.72;;
73938;SDS011;62291;47.554;8.504;2022-08-11T18:21:48;4.20;;;2.70;;
73938;SDS011;62291;47.554;8.504;2022-08-11T18:24:40;3.55;;;2.50;;
73938;SDS011;62291;47.554;8.504;2022-08-11T18:27:30;7.78;;;2.70;;
73938;SDS011;62291;47.554;8.504;2022-08-11T18:30:16;2.97;;;2.33;;
73938;SDS011;62291;47.554;8.504;2022-08-11T18:33:01;4.88;;;2.40;;
73938;SDS011;62291;47.554;8.504;2022-08-11T18:35:48;4.22;;;2.45;;
73938;SDS011;62291;47.554;8.504;2022-08-11T18:38:36;5.82;;;2.50;;
73938;SDS011;62291;47.554;8.504;2022-08-11T18:41:24;3.67;;;2.22;;
73938;SDS011;62291;47.554;8.504;2022-08-11T18:44:09;5.55;;;2.60;;
73938;SDS011;62291;47.554;8.504;2022-08-11T18:46:57;5.47;;;2.35;;
73938;SDS011;62291;47.554;8.504;2022-08-11T18:49:44;3.72;;;2.25;;
73938;SDS011;62291;47.554;8.504;2022-08-11T18:52:30;3.10;;;2.33;;
73938;SDS011;62291;47.554;8.504;2022-08-11T18:55:17;4.40;;;2.20;;
73938;SDS011;62291;47.554;8.504;2022-08-11T18:58:03;4.28;;;2.45;;
73938;SDS011;62291;47.554;8.504;2022-08-11T19:00:53;4.00;;;2.50;;
73938;SDS011;62291;47.554;8.504;2022-08-11T19:03:41;4.15;;;2.50;;
73938;SDS011;62291;47.554;8.504;2022-08-11T19:06:28;3.72;;;2.50;;
73938;SDS011;62291;47.554;8.504;2022-08-11T19:09:15;3.25;;;2.35;;
73938;SDS011;62291;47.554;8.504;2022-08-11T19:12:01;3.85;;;2.40;;
73938;SDS011;62291;47.554;8.504;2022-08-11T19:14:49;4.18;;;2.60;;
73938;SDS011;62291;47.554;8.504;2022-08-11T19:17:35;3.10;;;2.17;;
73938;SDS011;62291;47.554;8.504;2022-08-11T19:20:24;2.72;;;2.22;;